Time;durP1;ratioP1;P1;durP2;ratioP2;P2;SDS_P1;SDS_P2;PMS_P1;PMS_P2;Temp;Humidity;BMP_temperature;BMP_pressure;BME280_temperature;BME280_humidity;BME280_pressure;Samples;Min_cycle;Max_cycle;Signal;HPM_P1;HPM_P2
2023/04/27 00:01:22;;;;;;;1.67;0.40;;;;;;;18.60;32.10;96394.03;5040457;28;20091;-30
2023/04/27 00:03:47;;;;;;;1.10;0.60;;;;;;;18.67;32.11;96396.34;5038750;28;20355;-29
2023/04/27 00:06:13;;;;;;;2.47;0.80;;;;;;;18.79;31.93;96394.53;5039811;28;20403;-30
2023/04/27 00:08:38;;;;;;;1.77;0.50;;;;;;;18.77;32.39;96386.75;5037254;28;20071;-29
2023/04/27 00:11:04;;;;;;;0.95;0.50;;;;;;;18.75;32.42;96385.72;5035239;28;20385;-29
2023/04/27 00:13:30;;;;;;;1.48;0.43;;;;;;;18.77;32.57;96394.25;5041708;28;20032;-29
2023/04/27 00:15:55;;;;;;;2.35;0.60;;;;;;;18.71;32.43;96385.91;5037654;28;20017;-30
2023/04/27 00:18:20;;;;;;;2.38;0.60;;;;;;;18.75;32.66;96388.47;5040582;28;20457;-30
2023/04/27 00:20:46;;;;;;;1.02;0.55;;;;;;;18.76;32.88;96392.72;5043194;28;20028;-30
2023/04/27 00:23:12;;;;;;;2.25;0.57;;;;;;;18.95;32.71;96383.72;5043670;28;20424;-31
2023/04/27 00:25:37;;;;;;;1.38;0.60;;;;;;;18.86;33.02;96385.84;5041275;28;20056;-30
2023/04/27 00:28:03;;;;;;;1.40;0.60;;;;;;;18.90;32.76;96387.16;5038155;28;20013;-29
2023/04/27 00:30:28;;;;;;;1.13;0.43;;;;;;;18.82;32.82;96383.31;5042797;28;20025;-30
2023/04/27 00:32:54;;;;;;;1.10;0.50;;;;;;;18.61;33.22;96390.81;5042266;28;20466;-29
2023/04/27 00:35:19;;;;;;;1.10;0.50;;;;;;;18.49;32.93;96385.63;5043233;28;20021;-30
2023/04/27 00:37:45;;;;;;;0.90;0.55;;;;;;;18.62;32.39;96394.31;5044302;28;20032;-29
2023/04/27 00:40:11;;;;;;;1.20;0.52;;;;;;;18.60;32.29;96385.78;5046021;28;20016;-29
2023/04/27 00:42:36;;;;;;;0.98;0.40;;;;;;;18.53;32.46;96388.91;5045805;28;20027;-31
2023/04/27 00:45:04;;;;;;;1.35;0.60;;;;;;;18.39;33.03;96387.75;5038748;28;20009;-29
2023/04/27 00:47:30;;;;;;;1.27;0.70;;;;;;;18.69;32.86;96393.13;5040593;28;20025;-29
2023/04/27 00:49:56;;;;;;;0.82;0.57;;;;;;;18.50;33.47;96398.09;5050037;28;20535;-29
2023/04/27 00:52:21;;;;;;;2.38;0.90;;;;;;;18.53;33.54;96397.16;5043450;28;20050;-29
2023/04/27 00:54:51;;;;;;;2.50;0.82;;;;;;;18.35;34.05;96386.41;5042908;28;20128;-30
2023/04/27 00:57:17;;;;;;;1.77;0.73;;;;;;;18.30;34.09;96383.09;5042742;28;20363;-30
2023/04/27 00:59:42;;;;;;;1.80;0.90;;;;;;;18.42;34.02;96386.03;5042981;28;20112;-29
2023/04/27 01:02:11;;;;;;;1.30;0.80;;;;;;;18.43;34.44;96384.78;5043659;28;20028;-29
2023/04/27 01:04:37;;;;;;;3.55;1.10;;;;;;;18.51;34.36;96374.91;5045498;28;20017;-30
2023/04/27 01:07:03;;;;;;;2.15;0.80;;;;;;;18.40;34.60;96372.03;5045269;28;20048;-29
2023/04/27 01:09:29;;;;;;;2.17;0.95;;;;;;;18.58;34.34;96377.25;5042502;28;20036;-29
2023/04/27 01:11:54;;;;;;;2.67;0.90;;;;;;;18.51;34.47;96372.16;5041114;28;20100;-30
2023/04/27 01:14:20;;;;;;;2.88;1.00;;;;;;;18.41;34.93;96373.53;5037425;28;20381;-29
2023/04/27 01:16:46;;;;;;;2.33;1.10;;;;;;;18.55;34.58;96378.19;5049468;28;20589;-31
2023/04/27 01:19:12;;;;;;;4.60;1.10;;;;;;;18.33;35.15;96372.41;5042450;28;20021;-30
2023/04/27 01:21:38;;;;;;;4.90;1.30;;;;;;;18.36;35.04;96374.97;5049964;28;20034;-30
2023/04/27 01:24:07;;;;;;;3.38;0.90;;;;;;;18.31;35.25;96378.38;5042283;28;20014;-32
2023/04/27 01:26:33;;;;;;;2.00;1.10;;;;;;;18.37;35.26;96373.72;5050013;28;20021;-30
2023/04/27 01:28:58;;;;;;;1.85;0.77;;;;;;;18.34;35.06;96374.69;5034767;28;20030;-29
2023/04/27 01:31:24;;;;;;;1.17;0.90;;;;;;;18.30;35.05;96379.59;5042636;28;20064;-29
2023/04/27 01:33:50;;;;;;;4.55;1.30;;;;;;;18.47;34.99;96390.81;5041417;28;20030;-29
2023/04/27 01:36:17;;;;;;;2.53;1.20;;;;;;;18.40;35.45;96393.97;5038841;28;20025;-29
2023/04/27 01:38:43;;;;;;;2.03;1.02;;;;;;;18.43;35.64;96399.25;5043948;28;20032;-31
2023/04/27 01:41:08;;;;;;;2.13;1.00;;;;;;;18.67;35.24;96390.84;5039500;28;20025;-29
2023/04/27 01:43:34;;;;;;;4.75;1.02;;;;;;;18.34;35.50;96390.41;5042287;28;20017;-29
2023/04/27 01:46:11;;;;;;;1.63;1.10;;;;;;;18.26;35.74;96390.81;5042397;28;20108;-31
2023/04/27 01:48:38;;;;;;;1.80;1.00;;;;;;;18.43;35.66;96395.75;5041782;28;20053;-29
2023/04/27 01:51:04;;;;;;;2.33;1.10;;;;;;;18.16;36.25;96396.91;5042031;28;20025;-29
2023/04/27 01:53:30;;;;;;;1.95;1.15;;;;;;;18.34;36.15;96401.38;5034490;28;20033;-30
2023/04/27 01:55:56;;;;;;;1.58;1.00;;;;;;;18.45;35.68;96396.03;5041863;28;20073;-29
2023/04/27 01:58:21;;;;;;;2.67;1.20;;;;;;;18.30;36.35;96391.34;5041262;28;20025;-28
2023/04/27 02:00:47;;;;;;;1.63;1.00;;;;;;;18.35;35.99;96397.41;5045128;28;20099;-29
2023/04/27 02:03:12;;;;;;;4.03;1.08;;;;;;;18.46;36.07;96394.81;5042708;28;20021;-30
2023/04/27 02:05:38;;;;;;;2.47;1.45;;;;;;;18.28;36.46;96388.34;5041822;28;20108;-30
2023/04/27 02:08:04;;;;;;;4.15;1.23;;;;;;;18.25;36.64;96389.28;5034244;28;20017;-29
2023/04/27 02:10:29;;;;;;;2.53;1.33;;;;;;;18.44;36.44;96400.00;5043127;28;20385;-30
2023/04/27 02:12:56;;;;;;;2.42;1.13;;;;;;;18.44;36.55;96397.28;5039269;28;20032;-29
2023/04/27 02:15:21;;;;;;;2.80;1.30;;;;;;;18.16;36.94;96392.16;5040927;28;20029;-30
2023/04/27 02:17:47;;;;;;;3.45;1.40;;;;;;;18.27;37.14;96392.31;5038953;28;20022;-29
2023/04/27 02:20:13;;;;;;;2.92;1.45;;;;;;;18.36;37.19;96396.94;5041492;28;20381;-29
2023/04/27 02:22:44;;;;;;;4.50;1.60;;;;;;;18.34;37.54;96391.16;5041622;28;20476;-30
2023/04/27 02:25:10;;;;;;;2.13;1.30;;;;;;;18.31;37.65;96392.09;5046871;28;20025;-30
2023/04/27 02:27:37;;;;;;;3.63;1.20;;;;;;;18.24;37.81;96392.50;5042162;28;20036;-29
2023/04/27 02:30:07;;;;;;;3.05;1.00;;;;;;;18.07;38.39;96392.25;5040937;28;20031;-29
2023/04/27 02:32:33;;;;;;;3.80;1.30;;;;;;;18.30;38.03;96401.56;5041624;28;20106;-31
2023/04/27 02:34:59;;;;;;;2.97;1.40;;;;;;;18.30;38.28;96396.84;5041085;28;20064;-32
2023/04/27 02:37:25;;;;;;;2.55;1.52;;;;;;;18.37;38.29;96383.94;5040704;28;20032;-30
2023/04/27 02:39:50;;;;;;;3.58;1.40;;;;;;;18.40;38.16;96388.50;5041739;28;20028;-31
2023/04/27 02:42:15;;;;;;;2.30;1.35;;;;;;;18.39;38.23;96392.47;5040912;28;20021;-30
2023/04/27 02:44:41;;;;;;;4.15;1.58;;;;;;;18.28;38.42;96385.59;5040422;28;20075;-29
2023/04/27 02:47:06;;;;;;;2.97;1.40;;;;;;;18.13;38.82;96392.34;5043640;28;20079;-30
2023/04/27 02:49:32;;;;;;;4.10;1.63;;;;;;;18.37;38.26;96389.44;5038460;28;20770;-30
2023/04/27 02:51:57;;;;;;;3.40;1.60;;;;;;;18.35;38.70;96387.19;5039610;28;20383;-29
2023/04/27 02:54:23;;;;;;;2.00;1.33;;;;;;;18.20;39.19;96387.22;5040632;28;20516;-30
2023/04/27 02:56:48;;;;;;;4.85;1.65;;;;;;;18.09;39.42;96389.81;5040394;28;20029;-29
2023/04/27 02:59:13;;;;;;;4.47;1.90;;;;;;;18.32;39.31;96399.09;5040329;28;20564;-30
2023/04/27 03:01:39;;;;;;;2.65;1.40;;;;;;;18.29;39.56;96391.84;5040268;28;20030;-29
2023/04/27 03:04:04;;;;;;;2.10;1.40;;;;;;;18.30;39.75;96390.59;5040495;28;20480;-30
2023/04/27 03:06:30;;;;;;;2.20;1.33;;;;;;;18.06;39.98;96398.97;5037001;28;20036;-29
2023/04/27 03:08:55;;;;;;;2.28;1.48;;;;;;;18.00;40.25;96389.91;5044461;28;20029;-29
2023/04/27 03:11:20;;;;;;;3.75;2.00;;;;;;;17.90;40.83;96394.78;5041684;28;20056;-30
2023/04/27 03:13:46;;;;;;;3.97;1.70;;;;;;;18.00;41.11;96409.13;5043592;28;20021;-30
2023/04/27 03:16:11;;;;;;;3.40;1.85;;;;;;;18.28;40.63;96404.06;5043250;28;20021;-29
2023/04/27 03:18:37;;;;;;;3.33;1.70;;;;;;;18.22;40.98;96406.72;5048969;28;20024;-29
2023/04/27 03:21:10;;;;;;;3.88;2.00;;;;;;;18.14;41.03;96411.09;5037619;28;20025;-29
2023/04/27 03:23:35;;;;;;;3.55;2.13;;;;;;;17.92;41.85;96405.28;5047304;28;20112;-29
2023/04/27 03:26:06;;;;;;;3.70;1.83;;;;;;;18.11;41.41;96412.03;5039835;28;20105;-29
2023/04/27 03:28:31;;;;;;;3.60;2.20;;;;;;;18.21;41.65;96404.44;5040007;28;20021;-29
2023/04/27 03:30:57;;;;;;;3.22;1.98;;;;;;;18.17;42.47;96395.66;5043876;28;20048;-29
2023/04/27 03:33:22;;;;;;;4.00;2.00;;;;;;;18.12;42.29;96402.56;5043863;28;20033;-29
2023/04/27 03:35:55;;;;;;;2.63;1.70;;;;;;;18.02;42.46;96397.69;5042179;28;20388;-30
2023/04/27 03:38:20;;;;;;;5.05;2.05;;;;;;;18.03;43.10;96394.47;5042819;28;20412;-29
2023/04/27 03:40:46;;;;;;;3.60;1.90;;;;;;;18.15;43.46;96401.63;5040030;28;20029;-30
2023/04/27 03:43:11;;;;;;;5.85;2.22;;;;;;;18.35;42.95;96398.16;5037200;28;20075;-30
2023/04/27 03:45:36;;;;;;;3.72;2.20;;;;;;;18.13;43.12;96392.34;5036533;28;20441;-29
2023/04/27 03:48:02;;;;;;;2.42;1.80;;;;;;;17.98;43.84;96394.38;5038982;28;20028;-30
2023/04/27 03:50:27;;;;;;;4.55;2.40;;;;;;;17.96;44.31;96400.31;5039798;28;20103;-30
2023/04/27 03:52:53;;;;;;;4.72;2.60;;;;;;;18.11;44.20;96408.53;5039451;28;20045;-29
2023/04/27 03:55:18;;;;;;;6.00;3.03;;;;;;;18.09;44.46;96400.78;5039986;28;20048;-29
2023/04/27 03:57:43;;;;;;;5.90;2.80;;;;;;;17.99;45.02;96409.59;5046139;28;20115;-30
2023/04/27 04:00:11;;;;;;;4.78;2.75;;;;;;;17.91;45.48;96404.50;5036397;28;20044;-32
2023/04/27 04:02:36;;;;;;;7.93;3.67;;;;;;;17.88;45.14;96416.44;5039959;28;20091;-30
2023/04/27 04:05:02;;;;;;;8.68;3.85;;;;;;;17.99;45.41;96412.34;5043950;28;20033;-29
2023/04/27 04:07:28;;;;;;;5.85;3.40;;;;;;;17.98;45.27;96417.06;5046634;28;20033;-29
2023/04/27 04:09:53;;;;;;;6.68;3.35;;;;;;;18.00;45.36;96414.63;5047204;28;20107;-30
2023/04/27 04:12:18;;;;;;;5.65;3.65;;;;;;;18.00;45.50;96420.09;5037878;28;20025;-30
2023/04/27 04:14:47;;;;;;;11.27;3.67;;;;;;;18.02;45.64;96414.91;5043730;28;20444;-29
2023/04/27 04:17:13;;;;;;;6.72;3.70;;;;;;;18.06;45.63;96415.44;5042141;28;20493;-30
2023/04/27 04:19:39;;;;;;;6.03;3.78;;;;;;;18.07;45.56;96421.69;5046421;28;20029;-29
2023/04/27 04:22:04;;;;;;;5.05;3.55;;;;;;;18.07;45.66;96422.44;5048083;28;20113;-31
2023/04/27 04:24:30;;;;;;;6.65;3.65;;;;;;;17.88;46.11;96426.66;5043204;28;20515;-29
2023/04/27 04:26:55;;;;;;;6.57;3.47;;;;;;;17.90;45.78;96432.41;5041601;28;20020;-30
2023/04/27 04:29:22;;;;;;;5.95;3.55;;;;;;;17.89;45.85;96441.88;5046999;28;20020;-29
2023/04/27 04:31:47;;;;;;;6.28;3.58;;;;;;;17.97;45.42;96439.50;5038414;28;20079;-29
2023/04/27 04:34:13;;;;;;;10.07;4.65;;;;;;;18.12;45.05;96441.00;5040868;28;20021;-30
2023/04/27 04:36:39;;;;;;;6.13;3.50;;;;;;;17.81;45.76;96443.47;5043778;28;20033;-29
2023/04/27 04:39:05;;;;;;;5.57;3.63;;;;;;;17.94;45.31;96446.69;5046464;28;20024;-33
2023/04/27 04:41:31;;;;;;;5.70;3.00;;;;;;;17.84;45.56;96442.53;5039873;28;20033;-30
2023/04/27 04:43:57;;;;;;;5.65;3.08;;;;;;;17.88;45.60;96443.09;5043513;28;20032;-29
2023/04/27 04:46:23;;;;;;;6.32;3.65;;;;;;;17.80;45.58;96452.97;5043092;28;20028;-30
2023/04/27 04:48:49;;;;;;;5.22;3.13;;;;;;;17.95;45.22;96450.94;5043022;28;20044;-29
2023/04/27 04:51:15;;;;;;;6.18;2.90;;;;;;;17.85;45.21;96455.03;5042930;28;20017;-31
2023/04/27 04:53:41;;;;;;;4.90;2.85;;;;;;;18.03;44.65;96465.81;5041789;28;20409;-30
2023/04/27 04:56:11;;;;;;;8.32;3.95;;;;;;;18.16;44.44;96471.75;5043697;28;20468;-29
2023/04/27 04:58:37;;;;;;;10.30;3.58;;;;;;;18.01;44.89;96476.50;5041317;28;20021;-29
2023/04/27 05:01:03;;;;;;;13.48;5.07;;;;;;;17.87;44.98;96477.25;5044347;28;20025;-30
2023/04/27 05:03:28;;;;;;;16.40;5.57;;;;;;;17.81;45.12;96476.41;5038745;28;20032;-29
2023/04/27 05:05:54;;;;;;;8.63;4.38;;;;;;;17.88;44.99;96478.78;5045760;28;20024;-31
2023/04/27 05:08:19;;;;;;;7.07;3.47;;;;;;;17.89;44.96;96474.81;5037545;28;20029;-31
2023/04/27 05:10:52;;;;;;;7.88;3.70;;;;;;;17.99;44.76;96489.94;5046191;28;20029;-29
2023/04/27 05:13:18;;;;;;;8.13;3.00;;;;;;;17.91;45.55;96494.28;5037444;28;20032;-29
2023/04/27 05:15:44;;;;;;;6.03;2.65;;;;;;;18.10;44.73;96492.84;5041076;28;20108;-30
2023/04/27 05:18:09;;;;;;;4.75;2.80;;;;;;;18.13;44.66;96491.91;5042566;28;20075;-29
2023/04/27 05:20:35;;;;;;;4.78;2.50;;;;;;;17.90;45.17;96496.28;5042886;28;20044;-29
2023/04/27 05:23:01;;;;;;;5.13;2.63;;;;;;;18.03;45.22;96504.22;5042668;28;20481;-29
2023/04/27 05:25:40;;;;;;;5.20;2.90;;;;;;;18.01;45.38;96506.69;5042127;28;20033;-30
2023/04/27 05:28:09;;;;;;;5.13;2.85;;;;;;;17.85;46.05;96507.91;5040422;28;20096;-29
2023/04/27 05:30:35;;;;;;;3.70;2.50;;;;;;;18.19;45.31;96513.94;5041898;28;20021;-29
2023/04/27 05:33:03;;;;;;;4.78;2.60;;;;;;;18.09;45.56;96515.28;5042146;28;20029;-30
2023/04/27 05:35:29;;;;;;;7.65;3.20;;;;;;;17.99;46.08;96514.63;5042301;28;20427;-30
2023/04/27 05:37:55;;;;;;;4.63;2.75;;;;;;;18.28;45.65;96514.63;5035952;28;20074;-30
2023/04/27 05:40:21;;;;;;;5.95;2.80;;;;;;;17.99;45.87;96509.13;5042110;28;20033;-29
2023/04/27 05:42:47;;;;;;;6.13;2.97;;;;;;;17.79;46.82;96511.78;5042981;28;20486;-30
2023/04/27 05:45:12;;;;;;;8.07;3.33;;;;;;;18.01;46.50;96501.19;5044981;28;20017;-31
2023/04/27 05:47:38;;;;;;;4.93;2.80;;;;;;;18.19;46.39;96508.47;5038221;28;20025;-29
2023/04/27 05:50:04;;;;;;;5.68;3.45;;;;;;;18.23;46.52;96509.78;5042643;28;20025;-30
2023/04/27 05:52:30;;;;;;;5.35;3.15;;;;;;;18.23;46.62;96512.53;5032708;28;20508;-29
2023/04/27 05:54:57;;;;;;;6.00;3.42;;;;;;;18.23;46.70;96512.53;5041617;28;20106;-29
2023/04/27 05:57:23;;;;;;;5.80;2.80;;;;;;;18.18;46.81;96529.66;5044928;28;20017;-30
2023/04/27 05:59:49;;;;;;;4.80;3.10;;;;;;;18.24;46.87;96525.03;5044438;28;20052;-30
2023/04/27 06:02:15;;;;;;;4.75;2.92;;;;;;;18.15;47.23;96522.41;5043153;28;20049;-28
2023/04/27 06:04:40;;;;;;;5.32;3.50;;;;;;;18.45;46.50;96528.59;5044001;28;20025;-29
2023/04/27 06:07:10;;;;;;;8.10;3.13;;;;;;;18.43;46.66;96524.81;5044389;28;20112;-29
2023/04/27 06:09:36;;;;;;;6.22;2.78;;;;;;;18.38;46.76;96529.00;5041656;28;20021;-29
2023/04/27 06:12:06;;;;;;;6.63;3.67;;;;;;;18.40;47.08;96526.53;5040957;28;20028;-29
2023/04/27 06:14:33;;;;;;;5.55;3.30;;;;;;;18.49;46.66;96531.91;5041760;28;20017;-29
2023/04/27 06:16:59;;;;;;;8.30;3.55;;;;;;;18.27;47.42;96537.06;5040031;28;20465;-29
2023/04/27 06:19:25;;;;;;;7.65;4.03;;;;;;;18.63;46.60;96535.91;5042656;28;20083;-28
2023/04/27 06:21:53;;;;;;;6.35;3.92;;;;;;;18.52;46.76;96538.47;5041456;28;20021;-30
2023/04/27 06:24:18;;;;;;;9.63;3.72;;;;;;;18.53;47.11;96534.47;5041162;28;20024;-29
2023/04/27 06:26:44;;;;;;;7.72;3.72;;;;;;;18.46;47.41;96537.59;5036391;28;20024;-29
2023/04/27 06:29:09;;;;;;;7.78;3.70;;;;;;;18.36;47.62;96542.44;5044766;28;20021;-30
2023/04/27 06:31:35;;;;;;;8.48;4.15;;;;;;;18.61;47.08;96554.84;5032857;28;20018;-29
2023/04/27 06:34:00;;;;;;;6.80;3.58;;;;;;;18.67;46.95;96544.69;5040772;28;20075;-28
2023/04/27 06:36:30;;;;;;;6.82;3.35;;;;;;;18.57;46.88;96552.25;5044397;28;20037;-29
2023/04/27 06:38:56;;;;;;;6.50;3.13;;;;;;;18.57;46.70;96554.25;5050377;28;20017;-30
2023/04/27 06:41:22;;;;;;;5.20;2.90;;;;;;;18.57;47.01;96551.50;5043992;28;20037;-28
2023/04/27 06:43:47;;;;;;;5.13;3.05;;;;;;;18.63;47.04;96546.88;5035287;28;20481;-29
2023/04/27 06:46:13;;;;;;;5.70;3.17;;;;;;;18.63;46.67;96549.63;5040643;28;20057;-28
2023/04/27 06:48:39;;;;;;;3.90;2.80;;;;;;;18.53;47.00;96553.69;5041013;28;20385;-28
2023/04/27 06:51:05;;;;;;;5.72;3.30;;;;;;;18.76;46.61;96563.06;5041320;28;20037;-29
2023/04/27 06:53:31;;;;;;;5.35;3.22;;;;;;;18.79;46.80;96560.09;5038310;28;20037;-29
2023/04/27 06:55:56;;;;;;;8.73;3.20;;;;;;;18.78;46.68;96566.09;5042484;28;20032;-28
2023/04/27 06:58:23;;;;;;;4.97;2.75;;;;;;;18.63;46.94;96560.63;5035394;28;20041;-28
2023/04/27 07:00:48;;;;;;;4.20;2.30;;;;;;;18.58;46.65;96564.78;5044062;28;20027;-29
2023/04/27 07:03:14;;;;;;;6.63;2.65;;;;;;;18.63;46.45;96563.38;5035594;28;20104;-29
2023/04/27 07:05:39;;;;;;;5.80;2.72;;;;;;;18.74;46.22;96571.78;5043307;28;20032;-28
2023/04/27 07:08:05;;;;;;;4.30;2.20;;;;;;;18.78;45.96;96564.09;5035603;28;20029;-29
2023/04/27 07:10:31;;;;;;;5.88;2.55;;;;;;;18.84;45.65;96567.69;5040352;28;20116;-28
2023/04/27 07:12:56;;;;;;;7.05;2.50;;;;;;;18.86;45.61;96556.97;5040617;28;20032;-30
2023/04/27 07:15:22;;;;;;;5.80;2.25;;;;;;;18.94;45.65;96565.56;5040981;28;20063;-29
2023/04/27 07:17:47;;;;;;;5.93;2.10;;;;;;;18.79;45.89;96565.59;5039489;28;20469;-28
2023/04/27 07:20:13;;;;;;;5.68;2.20;;;;;;;19.04;45.48;96566.22;5040856;28;20020;-28
2023/04/27 07:22:39;;;;;;;3.63;1.80;;;;;;;19.00;45.67;96563.66;5042079;28;20050;-28
2023/04/27 07:25:05;;;;;;;3.42;1.85;;;;;;;18.98;45.70;96564.13;5043435;28;20017;-29
2023/04/27 07:27:30;;;;;;;4.32;2.35;;;;;;;18.88;45.92;96570.25;5041963;28;20090;-28
2023/04/27 07:29:56;;;;;;;4.60;2.00;;;;;;;19.02;45.20;96564.72;5043892;28;20469;-28
2023/04/27 07:32:22;;;;;;;5.95;2.13;;;;;;;19.07;45.12;96571.50;5044177;28;20021;-28
2023/04/27 07:34:47;;;;;;;3.28;1.92;;;;;;;19.06;44.78;96564.47;5040724;28;20033;-29
2023/04/27 07:37:14;;;;;;;3.30;1.90;;;;;;;19.01;44.97;96568.69;5038187;28;20105;-28
2023/04/27 07:39:41;;;;;;;5.15;1.90;;;;;;;19.06;45.14;96571.97;5039203;28;20038;-28
2023/04/27 07:42:06;;;;;;;2.95;1.70;;;;;;;19.16;44.58;96567.88;5044452;28;20021;-28
2023/04/27 07:44:32;;;;;;;3.97;1.60;;;;;;;19.18;44.68;96565.38;5044228;28;20029;-29
2023/04/27 07:46:58;;;;;;;5.05;2.03;;;;;;;19.29;44.32;96560.78;5044538;28;20025;-28
2023/04/27 07:49:25;;;;;;;3.72;1.67;;;;;;;19.29;44.12;96571.03;5044133;28;20044;-30
2023/04/27 07:51:51;;;;;;;3.80;1.52;;;;;;;19.11;43.41;96565.81;5043286;28;20049;-28
2023/04/27 07:54:16;;;;;;;3.50;1.80;;;;;;;19.15;43.28;96578.13;5042691;28;20033;-29
2023/04/27 07:56:42;;;;;;;3.20;1.40;;;;;;;19.48;42.74;96575.03;5043749;28;20021;-28
2023/04/27 07:59:08;;;;;;;3.47;1.00;;;;;;;19.50;42.68;96564.34;5050824;28;20029;-31
2023/04/27 08:01:33;;;;;;;1.83;1.23;;;;;;;19.33;43.23;96563.34;5047228;28;20033;-29
2023/04/27 08:03:58;;;;;;;2.80;1.52;;;;;;;19.32;43.38;96575.56;5046288;28;20595;-29
2023/04/27 08:06:24;;;;;;;3.38;1.50;;;;;;;19.60;42.81;96571.22;5046118;28;20029;-29
2023/04/27 08:08:49;;;;;;;3.58;1.35;;;;;;;19.42;43.28;96574.19;5048905;28;20055;-30
2023/04/27 08:11:15;;;;;;;3.03;1.20;;;;;;;19.42;43.23;96582.44;5043922;28;20382;-29
2023/04/27 08:13:40;;;;;;;2.40;1.35;;;;;;;19.41;43.18;96577.44;5040132;28;20122;-29
2023/04/27 08:16:06;;;;;;;3.72;1.30;;;;;;;18.98;41.53;96579.88;5040144;28;20020;-31
2023/04/27 08:18:31;;;;;;;3.90;1.27;;;;;;;19.43;42.50;96586.72;5044101;28;20396;-30
2023/04/27 08:20:57;;;;;;;3.42;1.30;;;;;;;19.51;42.58;96582.38;5048688;28;20048;-29
2023/04/27 08:23:26;;;;;;;2.03;1.20;;;;;;;19.32;42.99;96584.59;5038127;28;20090;-29
2023/04/27 08:25:52;;;;;;;3.33;1.45;;;;;;;19.20;43.30;96588.41;5036538;28;20473;-31
2023/04/27 08:28:17;;;;;;;2.38;1.20;;;;;;;19.62;42.53;96590.00;5043561;28;20100;-29
2023/04/27 08:30:43;;;;;;;3.20;1.40;;;;;;;19.46;42.64;96582.25;5043429;28;20020;-28
2023/04/27 08:33:09;;;;;;;1.85;1.25;;;;;;;19.19;42.90;96586.16;5048420;28;20036;-30
2023/04/27 08:35:35;;;;;;;4.30;1.40;;;;;;;19.45;42.40;96581.50;5038263;28;20112;-29
2023/04/27 08:38:00;;;;;;;2.47;1.30;;;;;;;19.47;42.31;96586.53;5043718;28;20516;-29
2023/04/27 08:40:26;;;;;;;7.03;1.27;;;;;;;19.45;41.45;96594.50;5052685;28;20017;-31
2023/04/27 08:42:56;;;;;;;1.60;1.10;;;;;;;19.55;41.38;96591.16;5044382;28;20032;-29
2023/04/27 08:45:23;;;;;;;3.50;1.25;;;;;;;19.51;41.26;96587.88;5042900;28;20454;-29
2023/04/27 08:47:49;;;;;;;2.08;1.35;;;;;;;19.45;40.65;96584.25;5042613;28;20517;-29
2023/04/27 08:50:15;;;;;;;2.70;1.33;;;;;;;19.52;40.32;96596.88;5041371;28;20071;-29
2023/04/27 08:52:43;;;;;;;2.38;1.40;;;;;;;19.57;40.12;96596.16;5035790;28;20050;-29
2023/04/27 08:55:09;;;;;;;3.80;1.70;;;;;;;19.58;39.67;96587.44;5045040;28;20974;-29
2023/04/27 08:57:34;;;;;;;23.38;11.98;;;;;;;19.58;39.47;96590.19;5039775;28;20029;-29
2023/04/27 09:00:10;;;;;;;19.58;11.52;;;;;;;19.54;39.17;96592.38;5042948;28;20104;-30
2023/04/27 09:02:36;;;;;;;17.25;10.93;;;;;;;19.50;37.45;96596.59;5041539;28;20112;-29
2023/04/27 09:05:02;;;;;;;28.98;16.25;;;;;;;19.67;37.09;96603.78;5042598;28;20164;-29
2023/04/27 09:07:28;;;;;;;28.85;15.65;;;;;;;19.70;37.35;96597.34;5043194;28;20029;-30
2023/04/27 09:10:02;;;;;;;23.75;13.45;;;;;;;19.56;37.19;96594.66;5042454;28;20033;-31
2023/04/27 09:12:27;;;;;;;20.38;12.48;;;;;;;19.72;37.27;96603.13;5042732;28;20029;-29
2023/04/27 09:14:57;;;;;;;17.10;9.52;;;;;;;19.65;37.60;96600.03;5042216;28;20540;-29
2023/04/27 09:17:29;;;;;;;14.32;8.98;;;;;;;19.82;37.70;96594.72;5042610;28;20070;-32
2023/04/27 09:20:11;;;;;;;14.95;8.70;;;;;;;19.69;37.35;96593.06;5045881;28;20479;-29
2023/04/27 09:22:51;;;;;;;19.95;10.55;;;;;;;19.75;37.59;96586.88;5044820;28;20021;-29
2023/04/27 09:25:31;;;;;;;13.27;7.25;;;;;;;19.63;37.47;96599.75;5045969;28;20017;-29
2023/04/27 09:27:58;;;;;;;8.50;5.00;;;;;;;19.66;37.78;96602.28;5042772;28;20021;-29
2023/04/27 09:30:25;;;;;;;6.75;4.18;;;;;;;19.76;37.56;96596.66;5041792;28;20178;-30
2023/04/27 09:32:55;;;;;;;8.15;3.47;;;;;;;19.68;37.84;96590.81;5044740;28;20028;-29
2023/04/27 09:35:22;;;;;;;4.15;2.53;;;;;;;19.63;37.83;96600.50;5046902;28;20353;-30
2023/04/27 09:37:50;;;;;;;3.55;2.30;;;;;;;19.69;37.68;96582.06;5042436;28;20072;-29
2023/04/27 09:40:18;;;;;;;5.32;2.55;;;;;;;19.72;37.65;96585.84;5039410;28;20021;-30
2023/04/27 09:42:43;;;;;;;3.25;2.28;;;;;;;19.77;37.80;96593.44;5044092;28;20427;-29
2023/04/27 09:45:10;;;;;;;7.53;1.67;;;;;;;19.80;37.36;96594.44;5037935;28;20150;-28
2023/04/27 09:47:36;;;;;;;3.42;1.60;;;;;;;19.82;37.04;96589.22;5039072;28;20022;-30
2023/04/27 09:50:02;;;;;;;2.45;1.27;;;;;;;19.76;36.87;96589.16;5042135;28;20163;-30
2023/04/27 09:52:28;;;;;;;1.73;1.20;;;;;;;19.78;35.95;96602.44;5033259;28;20136;-30
2023/04/27 09:54:57;;;;;;;5.75;1.00;;;;;;;19.84;35.42;96597.75;5041318;28;20078;-29
2023/04/27 09:57:49;;;;;;;1.80;1.05;;;;;;;19.77;35.50;96598.94;5041997;28;20021;-29
2023/04/27 10:00:24;;;;;;;2.42;1.10;;;;;;;19.82;35.32;96589.22;5041541;28;20021;-29
2023/04/27 10:03:29;;;;;;;1.75;1.17;;;;;;;19.91;35.25;96600.06;5048366;28;20069;-29
2023/04/27 10:06:31;;;;;;;4.15;1.02;;;;;;;19.81;34.38;96602.22;5044600;28;20027;-29
2023/04/27 10:08:58;;;;;;;1.63;0.90;;;;;;;19.83;34.09;96601.72;5043312;28;20473;-30
2023/04/27 10:11:38;;;;;;;1.92;0.82;;;;;;;19.94;34.33;96601.84;5042821;28;20040;-30
2023/04/27 10:14:07;;;;;;;2.50;0.85;;;;;;;19.92;33.91;96604.31;5045110;28;20017;-30
2023/04/27 10:16:54;;;;;;;2.22;0.75;;;;;;;19.89;33.89;96594.31;5042409;28;20112;-29
2023/04/27 10:19:21;;;;;;;3.13;0.93;;;;;;;19.95;34.21;96598.63;5040764;28;20018;-29
2023/04/27 10:21:56;;;;;;;2.13;0.50;;;;;;;19.94;34.07;96601.84;5051333;28;20103;-29
2023/04/27 10:24:38;;;;;;;1.75;0.55;;;;;;;19.93;33.75;96605.84;5044054;28;20028;-29
2023/04/27 10:27:09;;;;;;;1.90;0.70;;;;;;;20.05;34.01;96599.22;5033764;28;20572;-32
2023/04/27 10:29:41;;;;;;;3.22;0.77;;;;;;;19.96;34.12;96594.63;5041687;28;20543;-29
2023/04/27 10:32:09;;;;;;;2.53;0.60;;;;;;;19.96;34.04;96600.13;5041490;28;20163;-29
2023/04/27 10:34:36;;;;;;;2.45;0.52;;;;;;;20.01;34.17;96596.69;5032533;28;20065;-29
2023/04/27 10:37:07;;;;;;;0.90;0.40;;;;;;;19.95;33.19;96608.88;5051368;28;20029;-29
2023/04/27 10:39:37;;;;;;;0.70;0.50;;;;;;;19.98;32.30;96599.66;5051164;28;20024;-29
2023/04/27 10:42:04;;;;;;;2.80;0.80;;;;;;;19.99;32.68;96595.66;5048286;28;20025;-30
2023/04/27 10:44:31;;;;;;;3.67;0.60;;;;;;;20.03;32.81;96598.94;5039657;28;20015;-30
2023/04/27 10:46:59;;;;;;;4.45;0.60;;;;;;;20.01;33.43;96598.69;5035504;28;20112;-29
2023/04/27 10:49:28;;;;;;;3.63;0.80;;;;;;;20.06;33.12;96589.72;5039452;28;20021;-29
2023/04/27 10:51:57;;;;;;;4.07;0.75;;;;;;;20.12;34.00;96593.28;5040453;28;20045;-29
2023/04/27 10:54:29;;;;;;;1.35;0.60;;;;;;;20.12;33.56;96589.78;5040698;28;20022;-29
2023/04/27 10:57:02;;;;;;;1.05;0.82;;;;;;;20.12;33.55;96582.28;5040699;28;20376;-30
2023/04/27 10:59:28;;;;;;;2.55;0.82;;;;;;;20.13;33.59;96581.03;5040970;28;20021;-30
2023/04/27 11:01:53;;;;;;;2.97;0.70;;;;;;;20.12;33.56;96581.53;5040514;28;20032;-29
2023/04/27 11:04:19;;;;;;;1.17;0.60;;;;;;;20.18;33.55;96583.06;5041040;28;20021;-29
2023/04/27 11:06:45;;;;;;;1.88;0.60;;;;;;;20.18;32.97;96585.81;5040662;28;20018;-29
2023/04/27 11:09:12;;;;;;;1.63;0.60;;;;;;;20.22;33.06;96583.63;5040071;28;20473;-29
2023/04/27 11:11:42;;;;;;;0.75;0.60;;;;;;;20.24;33.12;96580.38;5040550;28;20374;-29
2023/04/27 11:14:07;;;;;;;1.60;0.88;;;;;;;20.25;33.35;96581.91;5039430;28;20025;-29
2023/04/27 11:16:33;;;;;;;2.10;0.60;;;;;;;20.17;32.78;96578.06;5040452;28;20100;-29
2023/04/27 11:19:04;;;;;;;3.00;0.90;;;;;;;20.19;33.01;96584.59;5038194;28;20013;-29
2023/04/27 11:21:29;;;;;;;2.53;0.70;;;;;;;20.31;33.25;96580.69;5041223;28;20078;-29
2023/04/27 11:23:55;;;;;;;1.67;0.98;;;;;;;20.26;33.10;96573.16;5037128;28;20021;-31
2023/04/27 11:26:25;;;;;;;1.17;0.77;;;;;;;20.32;32.89;96573.19;5035674;28;20347;-29
2023/04/27 11:28:57;;;;;;;2.72;0.82;;;;;;;20.29;32.82;96574.91;5048088;28;20392;-29
2023/04/27 11:31:22;;;;;;;2.67;0.85;;;;;;;20.33;32.83;96569.94;5031847;28;20377;-29